Time;durP1;ratioP1;P1;durP2;ratioP2;P2;SDS_P1;SDS_P2;PMS_P1;PMS_P2;Temp;Humidity;BMP_temperature;BMP_pressure;BME280_temperature;BME280_humidity;BME280_pressure;Samples;Min_cycle;Max_cycle;Signal;HPM_P1;HPM_P2
2021/03/25 00:00:41;;;;;;;13.15;7.53;;;7.00;99.90;;;;;;5135037;27;20024;-66
2021/03/25 00:03:08;;;;;;;;;;;6.90;99.90;;;;;;5137312;27;20464;-64
2021/03/25 00:05:34;;;;;;;13.60;7.20;;;6.90;99.90;;;;;;5135526;27;19943;-65
2021/03/25 00:08:00;;;;;;;13.55;6.43;;;6.80;99.90;;;;;;5136451;27;20761;-64
2021/03/25 00:10:31;;;;;;;12.10;6.80;;;6.80;99.90;;;;;;5135856;27;20529;-67
2021/03/25 00:12:58;;;;;;;11.05;6.78;;;6.80;99.90;;;;;;5136184;27;20020;-65
2021/03/25 00:15:24;;;;;;;10.40;6.60;;;6.80;99.90;;;;;;5135668;27;20027;-65
2021/03/25 00:17:50;;;;;;;12.50;6.30;;;6.80;99.90;;;;;;5135545;27;20019;-65
2021/03/25 00:20:16;;;;;;;11.15;6.43;;;6.70;99.90;;;;;;5135814;27;20745;-65
2021/03/25 00:22:42;;;;;;;10.77;6.60;;;6.70;99.90;;;;;;5134162;27;20038;-64
2021/03/25 00:25:10;;;;;;;10.25;6.35;;;6.70;99.90;;;;;;5135940;27;20489;-64
2021/03/25 00:27:36;;;;;;;15.82;7.20;;;6.70;99.90;;;;;;5135389;27;20031;-65
2021/03/25 00:30:03;;;;;;;9.80;6.57;;;6.60;99.90;;;;;;5135651;27;20026;-65
2021/03/25 00:32:28;;;;;;;11.00;6.40;;;6.50;99.90;;;;;;5134308;27;20031;-65
2021/03/25 00:34:54;;;;;;;11.37;6.67;;;6.50;99.90;;;;;;5135468;27;20031;-66
2021/03/25 00:37:20;;;;;;;12.97;6.03;;;6.50;99.90;;;;;;5135405;27;20055;-66
2021/03/25 00:39:45;;;;;;;9.97;6.43;;;6.50;99.90;;;;;;5135996;27;20027;-66
2021/03/25 00:42:11;;;;;;;9.27;5.77;;;6.40;99.90;;;;;;5136377;27;20486;-66
2021/03/25 00:44:37;;;;;;;11.47;6.10;;;6.40;99.90;;;;;;5136762;27;20050;-65
2021/03/25 00:47:02;;;;;;;15.40;6.40;;;6.30;99.90;;;;;;5136344;27;20023;-65
2021/03/25 00:49:29;;;;;;;8.98;5.85;;;6.40;99.90;;;;;;5136046;27;20019;-65
2021/03/25 00:51:55;;;;;;;9.52;5.00;;;6.40;99.90;;;;;;5135735;27;20368;-66
2021/03/25 00:54:21;;;;;;;9.53;5.40;;;6.40;99.90;;;;;;5135576;27;20026;-66
2021/03/25 00:56:46;;;;;;;17.07;10.30;;;6.30;99.90;;;;;;5136077;27;20102;-65
2021/03/25 00:59:12;;;;;;;10.03;4.90;;;6.30;99.90;;;;;;5135494;27;20027;-67
2021/03/25 01:01:37;;;;;;;11.87;5.33;;;6.40;99.90;;;;;;5134855;27;20019;-65
2021/03/25 01:04:03;;;;;;;10.23;5.47;;;6.40;99.90;;;;;;5135068;27;20015;-66
2021/03/25 01:06:29;;;;;;;13.23;7.63;;;6.40;99.90;;;;;;5135116;27;20023;-65
2021/03/25 01:08:55;;;;;;;17.07;9.13;;;6.40;99.90;;;;;;5135528;27;20042;-65
2021/03/25 01:11:27;;;;;;;12.47;8.27;;;6.40;99.90;;;;;;5135236;27;20034;-65
2021/03/25 01:13:59;;;;;;;10.32;5.82;;;6.50;99.90;;;;;;5134841;27;20047;-65
2021/03/25 01:16:33;;;;;;;14.00;7.72;;;6.50;99.90;;;;;;5134695;27;20033;-64
2021/03/25 01:19:00;;;;;;;11.90;7.72;;;6.50;99.90;;;;;;5133270;27;20043;-65
2021/03/25 01:21:29;;;;;;;10.52;5.93;;;6.50;99.90;;;;;;5135138;27;20438;-65
2021/03/25 01:23:55;;;;;;;13.52;10.48;;;6.40;99.90;;;;;;5134521;27;20019;-65
2021/03/25 01:26:21;;;;;;;7.72;4.85;;;6.40;99.90;;;;;;5134702;27;20484;-65
2021/03/25 01:28:47;;;;;;;9.07;4.60;;;6.30;99.90;;;;;;5134709;27;20043;-65
2021/03/25 01:31:13;;;;;;;10.20;5.32;;;6.30;99.90;;;;;;5134741;27;20023;-65
2021/03/25 01:33:38;;;;;;;8.95;4.70;;;6.30;99.90;;;;;;5134447;27;20087;-64
2021/03/25 01:36:04;;;;;;;7.75;4.93;;;6.40;99.90;;;;;;5134407;27;20026;-66
2021/03/25 01:38:30;;;;;;;7.80;4.43;;;6.40;99.90;;;;;;5134721;27;20023;-65
2021/03/25 01:41:01;;;;;;;6.43;4.47;;;6.40;99.90;;;;;;5134624;27;20087;-65
2021/03/25 01:43:36;;;;;;;6.85;4.55;;;6.50;99.90;;;;;;5134373;27;20372;-64
2021/03/25 01:46:05;;;;;;;10.02;4.95;;;6.40;99.90;;;;;;5134185;27;20092;-64
2021/03/25 01:48:35;;;;;;;6.47;4.53;;;6.30;99.90;;;;;;5134548;27;20080;-65
2021/03/25 01:51:08;;;;;;;8.93;4.90;;;6.40;99.90;;;;;;5134058;27;20050;-65
2021/03/25 01:54:18;;;;;;;9.45;4.72;;;6.30;99.90;;;;;;5134249;27;20027;-65
2021/03/25 01:56:49;;;;;;;9.05;4.95;;;6.20;99.90;;;;;;5134418;28;20095;-65
2021/03/25 01:59:32;;;;;;;9.48;4.30;;;6.20;99.90;;;;;;5133045;28;20023;-64
2021/03/25 02:02:21;;;;;;;7.25;4.43;;;6.30;99.90;;;;;;5133917;28;20452;-65
2021/03/25 02:05:07;;;;;;;6.40;4.07;;;6.20;99.90;;;;;;5134427;28;20027;-65
2021/03/25 02:07:45;;;;;;;6.93;4.40;;;6.20;99.90;;;;;;5134419;28;20019;-65
2021/03/25 02:10:26;;;;;;;;;;;6.10;99.90;;;;;;5134644;28;20476;-65
2021/03/25 02:13:10;;;;;;;8.82;4.28;;;6.10;99.90;;;;;;5133810;27;19949;-65
2021/03/25 02:15:48;;;;;;;7.88;4.00;;;6.10;99.90;;;;;;5138112;27;20027;-64
2021/03/25 02:18:25;;;;;;;8.57;5.07;;;6.10;99.90;;;;;;5138190;27;20029;-65
2021/03/25 02:21:13;;;;;;;8.20;4.72;;;6.10;99.90;;;;;;5138165;27;20027;-65
2021/03/25 02:23:47;;;;;;;6.85;4.60;;;6.10;99.90;;;;;;5136599;27;20039;-65
2021/03/25 02:26:21;;;;;;;8.15;4.25;;;6.10;99.90;;;;;;5138159;27;20027;-64
2021/03/25 02:29:16;;;;;;;6.72;4.53;;;6.10;99.90;;;;;;5137748;27;20058;-65
2021/03/25 02:31:47;;;;;;;7.35;4.28;;;6.20;99.90;;;;;;5129997;27;20043;-66
2021/03/25 02:34:22;;;;;;;8.73;4.25;;;6.30;99.90;;;;;;5138135;27;20034;-64
2021/03/25 02:37:03;;;;;;;6.03;4.07;;;6.30;99.90;;;;;;5137918;27;20026;-65
2021/03/25 02:39:38;;;;;;;7.47;3.83;;;6.30;99.90;;;;;;5137864;27;20068;-66
2021/03/25 02:42:06;;;;;;;7.53;4.53;;;6.20;99.90;;;;;;5137741;27;20031;-67
2021/03/25 02:44:41;;;;;;;5.57;3.75;;;6.20;99.90;;;;;;5137740;27;20047;-65
2021/03/25 02:47:09;;;;;;;8.82;4.20;;;6.00;99.90;;;;;;5136041;27;20023;-65
2021/03/25 02:49:49;;;;;;;5.32;3.65;;;5.90;99.90;;;;;;5136230;27;20023;-65
2021/03/25 02:52:30;;;;;;;8.32;4.25;;;5.80;99.90;;;;;;5137872;27;20244;-64
2021/03/25 02:54:58;;;;;;;7.20;4.05;;;5.80;99.90;;;;;;5137313;27;20083;-65
2021/03/25 02:57:32;;;;;;;6.90;3.67;;;5.70;99.90;;;;;;5137238;27;20027;-65
2021/03/25 03:00:04;;;;;;;11.00;4.10;;;5.70;99.90;;;;;;5137459;27;20102;-65
2021/03/25 03:02:54;;;;;;;7.32;4.30;;;5.70;99.90;;;;;;5135702;27;20019;-64
2021/03/25 03:05:26;;;;;;;7.32;3.85;;;5.60;99.90;;;;;;5137090;27;20058;-64
2021/03/25 03:08:04;;;;;;;7.55;4.28;;;5.60;99.90;;;;;;5137472;27;20480;-64
2021/03/25 03:10:42;;;;;;;7.40;4.20;;;5.60;99.90;;;;;;5137476;27;20451;-64
2021/03/25 03:13:10;;;;;;;6.00;3.85;;;5.60;99.90;;;;;;5136700;27;20023;-65
2021/03/25 03:15:48;;;;;;;9.70;4.20;;;5.50;99.90;;;;;;5135536;27;20023;-64
2021/03/25 03:18:28;;;;;;;6.90;4.25;;;5.50;99.90;;;;;;5136977;27;20102;-65
2021/03/25 03:20:59;;;;;;;8.27;3.83;;;5.50;99.90;;;;;;5136684;27;20064;-64
2021/03/25 03:23:28;;;;;;;6.90;3.83;;;5.50;99.90;;;;;;5136489;27;20532;-65
2021/03/25 03:25:56;;;;;;;7.13;3.78;;;5.50;99.90;;;;;;5136405;27;20023;-65
2021/03/25 03:28:26;;;;;;;8.70;3.80;;;5.40;99.90;;;;;;5136568;27;20084;-65
2021/03/25 03:31:17;;;;;;;5.88;3.88;;;5.40;99.90;;;;;;5136460;27;20472;-66
2021/03/25 03:33:52;;;;;;;6.50;4.05;;;5.30;99.90;;;;;;5136190;27;20495;-65
2021/03/25 03:36:21;;;;;;;6.03;3.65;;;5.30;99.90;;;;;;5136580;27;20062;-65
2021/03/25 03:39:08;;;;;;;9.02;4.00;;;5.30;99.90;;;;;;5136672;27;20041;-65
2021/03/25 03:41:47;;;;;;;7.18;4.10;;;5.20;99.90;;;;;;5136733;27;20054;-64
2021/03/25 03:44:17;;;;;;;6.82;3.80;;;5.30;99.90;;;;;;5136394;27;20019;-65
2021/03/25 03:46:45;;;;;;;6.43;3.97;;;5.20;99.90;;;;;;5136249;27;20098;-66
2021/03/25 03:49:31;;;;;;;7.13;3.88;;;5.30;99.90;;;;;;5136591;27;20027;-66
2021/03/25 03:52:02;;;;;;;5.72;3.47;;;5.30;99.90;;;;;;5136600;27;20106;-67
2021/03/25 03:54:28;;;;;;;7.05;3.75;;;5.30;99.90;;;;;;5136089;27;20435;-65
2021/03/25 03:57:20;;;;;;;7.55;4.28;;;5.30;99.90;;;;;;5136159;27;20023;-65
2021/03/25 04:00:01;;;;;;;6.32;3.95;;;5.60;99.90;;;;;;5135929;27;20382;-65
2021/03/25 04:02:29;;;;;;;6.93;3.92;;;5.80;99.90;;;;;;5136053;27;20016;-65
2021/03/25 04:05:06;;;;;;;8.80;3.75;;;5.70;99.90;;;;;;5135629;27;20127;-65
2021/03/25 04:07:36;;;;;;;8.98;4.30;;;5.60;99.90;;;;;;5135950;27;20023;-65
2021/03/25 04:10:19;;;;;;;6.75;3.88;;;5.60;99.90;;;;;;5135974;27;20122;-65
2021/03/25 04:12:54;;;;;;;7.22;4.20;;;5.50;99.90;;;;;;5134345;27;20027;-64
2021/03/25 04:15:28;;;;;;;6.78;3.72;;;5.40;99.90;;;;;;5135778;27;20023;-65
2021/03/25 04:18:39;;;;;;;7.22;3.90;;;5.40;99.90;;;;;;5136058;27;20027;-64
2021/03/25 04:21:15;;;;;;;9.45;3.90;;;5.40;99.90;;;;;;5135925;27;20049;-66
2021/03/25 04:23:43;;;;;;;8.60;4.25;;;5.50;99.90;;;;;;5135532;27;20020;-64
2021/03/25 04:26:26;;;;;;;6.18;3.40;;;5.50;99.90;;;;;;5135523;27;20110;-64
2021/03/25 04:29:05;;;;;;;5.88;3.58;;;5.60;99.90;;;;;;5138694;27;20033;-65
2021/03/25 04:31:32;;;;;;;6.55;4.38;;;5.70;99.90;;;;;;5134826;27;20023;-65
2021/03/25 04:33:59;;;;;;;13.32;4.22;;;5.80;99.90;;;;;;5135917;27;20099;-65
2021/03/25 04:36:27;;;;;;;7.95;4.35;;;5.70;99.90;;;;;;5133487;27;20031;-66
2021/03/25 04:38:55;;;;;;;7.63;4.50;;;5.60;99.90;;;;;;5135451;27;20019;-65
2021/03/25 04:41:21;;;;;;;8.52;4.50;;;5.60;99.90;;;;;;5135331;27;20435;-66
2021/03/25 04:43:48;;;;;;;9.68;4.95;;;5.50;99.90;;;;;;5134847;27;20067;-65
2021/03/25 04:46:58;;;;;;;8.45;4.80;;;5.40;99.90;;;;;;5135416;27;20139;-65
2021/03/25 04:49:32;;;;;;;8.52;4.57;;;5.30;99.90;;;;;;5134249;27;20037;-65
2021/03/25 04:52:03;;;;;;;7.97;4.80;;;5.40;99.90;;;;;;5134694;27;20429;-65
2021/03/25 04:54:32;;;;;;;8.00;4.40;;;5.40;99.90;;;;;;5135030;27;20029;-65
2021/03/25 04:57:18;;;;;;;7.97;4.78;;;5.30;99.90;;;;;;5134629;27;20536;-65
2021/03/25 04:59:44;;;;;;;10.88;4.97;;;5.30;99.90;;;;;;5123519;27;20035;-65
2021/03/25 05:02:11;;;;;;;6.97;4.33;;;5.20;99.90;;;;;;5134445;27;20026;-66
2021/03/25 05:04:42;;;;;;;8.93;5.13;;;5.20;99.90;;;;;;5134850;27;20035;-65
2021/03/25 05:07:08;;;;;;;9.20;4.70;;;5.20;99.90;;;;;;5134787;27;20050;-65
2021/03/25 05:09:35;;;;;;;7.75;4.63;;;5.20;99.90;;;;;;5135252;27;20023;-66
2021/03/25 05:12:03;;;;;;;9.15;4.93;;;5.30;99.90;;;;;;5134415;27;20027;-65
2021/03/25 05:14:29;;;;;;;9.98;5.03;;;5.20;99.90;;;;;;5134739;27;20019;-64
2021/03/25 05:17:12;;;;;;;8.60;4.70;;;5.20;99.90;;;;;;5134460;27;20491;-65
2021/03/25 05:19:49;;;;;;;10.73;5.30;;;5.20;99.90;;;;;;5134789;27;20076;-70
2021/03/25 05:22:38;;;;;;;7.40;4.57;;;5.20;99.90;;;;;;5134290;27;20170;-65
2021/03/25 05:25:20;;;;;;;7.75;4.30;;;5.20;99.90;;;;;;5134708;27;20023;-64
2021/03/25 05:28:01;;;;;;;11.52;5.03;;;5.20;99.90;;;;;;5135015;27;20027;-65
2021/03/25 05:30:32;;;;;;;8.32;4.28;;;5.30;99.90;;;;;;5134974;27;20020;-66
2021/03/25 05:33:05;;;;;;;8.50;4.82;;;5.20;99.90;;;;;;5133992;27;20035;-65
2021/03/25 05:35:35;;;;;;;11.13;4.60;;;5.10;99.90;;;;;;5134230;27;20027;-65
2021/03/25 05:38:02;;;;;;;9.25;4.50;;;5.10;99.90;;;;;;5134896;27;20019;-65
2021/03/25 05:40:39;;;;;;;12.13;4.10;;;5.10;99.90;;;;;;5133233;27;20027;-64
2021/03/25 05:43:38;;;;;;;8.20;4.90;;;5.10;99.90;;;;;;5134773;27;20020;-64
2021/03/25 05:46:20;;;;;;;7.22;4.30;;;5.20;99.90;;;;;;5134486;27;20030;-65
2021/03/25 05:48:58;;;;;;;8.88;4.72;;;5.20;99.90;;;;;;5133349;27;20031;-63
2021/03/25 05:51:57;;;;;;;9.50;4.57;;;5.20;99.90;;;;;;5134694;27;20035;-64
2021/03/25 05:54:55;;;;;;;10.68;4.82;;;5.30;99.90;;;;;;5134603;28;20031;-67
2021/03/25 05:57:39;;;;;;;10.07;4.55;;;5.30;99.90;;;;;;5125804;28;20472;-65
2021/03/25 06:00:08;;;;;;;7.07;4.38;;;5.30;99.90;;;;;;5134492;28;20058;-66
2021/03/25 06:02:43;;;;;;;9.15;4.82;;;5.40;99.90;;;;;;5134552;28;20020;-64
2021/03/25 06:05:12;;;;;;;8.70;4.60;;;5.40;99.90;;;;;;5135476;28;20106;-64
2021/03/25 06:08:08;;;;;;;8.73;4.97;;;5.70;99.90;;;;;;5135538;28;20062;-63
2021/03/25 06:10:55;;;;;;;7.45;4.30;;;5.70;99.90;;;;;;5135198;28;20029;-65
2021/03/25 06:13:34;;;;;;;9.80;5.07;;;5.70;99.90;;;;;;5135091;28;20057;-65
2021/03/25 06:16:42;;;;;;;9.02;4.47;;;5.70;99.90;;;;;;5134241;28;20031;-66
2021/03/25 06:19:26;;;;;;;8.18;4.53;;;5.80;99.90;;;;;;5134192;28;20023;-64
2021/03/25 06:22:00;;;;;;;9.95;4.88;;;5.80;99.90;;;;;;5134081;28;20030;-65
2021/03/25 06:25:03;;;;;;;6.70;4.38;;;5.80;99.90;;;;;;5134084;28;20475;-66
2021/03/25 06:28:00;;;;;;;8.25;4.30;;;5.90;99.90;;;;;;5133603;28;20051;-65
2021/03/25 06:30:36;;;;;;;11.15;4.80;;;5.90;99.90;;;;;;5133990;28;20104;-65
2021/03/25 06:33:26;;;;;;;8.27;4.50;;;5.90;99.90;;;;;;5133416;28;20027;-68
2021/03/25 06:35:57;;;;;;;8.27;4.22;;;5.90;99.90;;;;;;5133809;28;20023;-67
2021/03/25 06:38:33;;;;;;;7.00;4.68;;;5.90;99.90;;;;;;5132650;28;20102;-65
2021/03/25 06:41:06;;;;;;;9.27;4.63;;;6.10;99.90;;;;;;5133928;28;20448;-66
2021/03/25 06:43:46;;;;;;;9.60;5.45;;;6.10;99.90;;;;;;5133677;28;20441;-65
2021/03/25 06:46:28;;;;;;;8.02;4.32;;;6.20;99.90;;;;;;5133659;28;20019;-67
2021/03/25 06:48:59;;;;;;;10.73;4.90;;;6.10;99.90;;;;;;5133940;28;20027;-67
2021/03/25 06:51:34;;;;;;;7.57;4.07;;;6.30;99.90;;;;;;5134382;28;20073;-66
2021/03/25 06:54:15;;;;;;;9.65;4.60;;;6.40;99.90;;;;;;5132037;28;20024;-68
2021/03/25 06:56:47;;;;;;;9.98;4.25;;;6.40;99.90;;;;;;5133561;28;20019;-68
2021/03/25 06:59:30;;;;;;;9.55;4.50;;;6.60;99.90;;;;;;5131981;27;20023;-67
2021/03/25 07:02:30;;;;;;;8.23;4.38;;;6.50;99.90;;;;;;5135730;27;20027;-68
2021/03/25 07:05:01;;;;;;;17.40;8.40;;;6.50;99.90;;;;;;5136928;27;20080;-66
2021/03/25 07:07:37;;;;;;;15.23;7.65;;;6.60;99.90;;;;;;5137499;27;20106;-66
2021/03/25 07:10:05;;;;;;;9.65;4.80;;;6.50;99.90;;;;;;5137389;27;20028;-67
2021/03/25 07:12:35;;;;;;;10.30;5.90;;;6.70;99.90;;;;;;5137058;27;20031;-64
2021/03/25 07:15:01;;;;;;;8.27;4.72;;;6.70;99.90;;;;;;5136767;27;20043;-65
2021/03/25 07:17:39;;;;;;;7.75;4.68;;;6.70;99.90;;;;;;5137093;27;20466;-65
2021/03/25 07:20:35;;;;;;;9.13;4.50;;;6.80;99.90;;;;;;5137243;27;20019;-66
2021/03/25 07:23:12;;;;;;;8.25;4.60;;;6.80;99.90;;;;;;5135649;27;20039;-65
2021/03/25 07:25:41;;;;;;;12.23;7.35;;;6.90;99.90;;;;;;5136978;27;20025;-62
2021/03/25 07:28:13;;;;;;;8.88;4.50;;;6.90;99.90;;;;;;5135842;27;20024;-63
2021/03/25 07:30:55;;;;;;;11.18;5.30;;;7.00;99.90;;;;;;5136858;27;20031;-67
2021/03/25 07:33:24;;;;;;;8.70;4.78;;;7.10;99.90;;;;;;5135237;27;20026;-70
2021/03/25 07:35:56;;;;;;;10.90;4.82;;;7.20;99.90;;;;;;5135074;27;20050;-68
2021/03/25 07:38:29;;;;;;;7.93;4.55;;;7.40;99.90;;;;;;5136561;27;20026;-67
2021/03/25 07:41:20;;;;;;;8.15;4.63;;;7.40;99.90;;;;;;5136824;27;20042;-64
2021/03/25 07:43:51;;;;;;;10.15;4.97;;;7.60;99.90;;;;;;5136788;27;20062;-65
2021/03/25 07:46:28;;;;;;;8.40;4.68;;;7.70;99.90;;;;;;5135268;27;20072;-68
2021/03/25 07:49:05;;;;;;;9.15;4.40;;;7.90;99.90;;;;;;5136388;27;20023;-68
2021/03/25 07:51:42;;;;;;;7.38;4.97;;;8.00;99.90;;;;;;5135468;27;20433;-67
2021/03/25 07:54:11;;;;;;;;;;;8.20;99.90;;;;;;5136874;27;20023;-68
2021/03/25 07:56:48;;;;;;;7.28;5.05;;;8.30;99.90;;;;;;5136089;27;19960;-64
2021/03/25 07:59:31;;;;;;;10.02;5.38;;;8.30;99.90;;;;;;5134968;27;20031;-65
2021/03/25 08:01:57;;;;;;;6.85;5.07;;;8.50;99.90;;;;;;5136344;27;20532;-65
2021/03/25 08:04:31;;;;;;;9.07;4.87;;;8.60;99.90;;;;;;5136270;27;20023;-64
2021/03/25 08:07:06;;;;;;;8.88;4.95;;;8.80;99.90;;;;;;5136197;27;20472;-64
2021/03/25 08:09:44;;;;;;;8.90;5.05;;;8.90;99.90;;;;;;5134075;27;20019;-63
2021/03/25 08:12:19;;;;;;;;;;;9.20;99.90;;;;;;5134767;27;20030;-64
2021/03/25 08:14:44;;;;;;;8.73;4.93;;;9.40;99.90;;;;;;5135398;27;20317;-63
2021/03/25 08:17:16;;;;;;;9.73;5.37;;;9.50;99.90;;;;;;5134924;27;20023;-63
2021/03/25 08:20:13;;;;;;;7.32;4.80;;;9.60;99.90;;;;;;5136720;27;20760;-63
2021/03/25 08:22:45;;;;;;;9.20;4.80;;;9.70;99.90;;;;;;5135793;27;20027;-63
2021/03/25 08:25:20;;;;;;;13.73;5.70;;;9.70;99.90;;;;;;5135853;27;20087;-65
2021/03/25 08:28:08;;;;;;;13.40;5.40;;;9.90;99.90;;;;;;5138155;27;20069;-64
2021/03/25 08:31:09;;;;;;;9.95;5.18;;;10.10;99.90;;;;;;5137748;27;20031;-64
2021/03/25 08:33:59;;;;;;;10.75;5.47;;;10.30;99.90;;;;;;5137159;27;20038;-65
2021/03/25 08:36:31;;;;;;;8.98;5.55;;;10.40;99.90;;;;;;5137278;27;20023;-62
2021/03/25 08:39:32;;;;;;;11.07;5.80;;;10.50;99.90;;;;;;5137155;27;20518;-64
2021/03/25 08:42:27;;;;;;;12.57;6.07;;;10.50;99.90;;;;;;5135921;27;20455;-64
2021/03/25 08:44:59;;;;;;;8.70;5.15;;;10.60;99.90;;;;;;5133914;27;20491;-64
2021/03/25 08:47:47;;;;;;;8.63;4.95;;;10.60;99.90;;;;;;5137205;27;20502;-63
2021/03/25 08:50:37;;;;;;;7.20;4.60;;;11.20;99.80;;;;;;5135597;27;20030;-66
2021/03/25 08:53:32;;;;;;;7.05;4.47;;;13.00;96.00;;;;;;5136155;27;20029;-63
2021/03/25 08:56:04;;;;;;;6.65;4.60;;;14.80;89.40;;;;;;5121778;27;20042;-64
2021/03/25 08:58:36;;;;;;;8.73;5.20;;;16.20;78.20;;;;;;5135422;27;20027;-65
2021/03/25 09:01:12;;;;;;;9.68;5.68;;;17.70;68.30;;;;;;5135557;27;20472;-65
2021/03/25 09:03:43;;;;;;;9.27;4.90;;;18.70;60.20;;;;;;5134987;27;20020;-64
2021/03/25 09:06:21;;;;;;;10.02;5.50;;;19.10;58.50;;;;;;5135184;27;20446;-65
2021/03/25 09:08:51;;;;;;;7.22;5.13;;;19.20;55.80;;;;;;5134597;27;20337;-64
2021/03/25 09:11:19;;;;;;;9.73;5.85;;;19.90;54.40;;;;;;5133915;27;20499;-65
2021/03/25 09:13:48;;;;;;;11.05;5.05;;;20.30;52.70;;;;;;5134366;27;20023;-65
2021/03/25 09:16:21;;;;;;;10.23;5.22;;;20.90;51.50;;;;;;5135109;27;20433;-65
2021/03/25 09:18:49;;;;;;;7.65;5.60;;;21.40;49.30;;;;;;5135072;27;20033;-66
2021/03/25 09:21:19;;;;;;;9.07;5.57;;;21.70;48.50;;;;;;5134868;27;20023;-65
2021/03/25 09:23:59;;;;;;;7.93;5.88;;;22.10;47.30;;;;;;5134931;27;20072;-65
2021/03/25 09:26:25;;;;;;;11.00;6.30;;;22.40;46.60;;;;;;5134900;27;20119;-65
2021/03/25 09:28:59;;;;;;;8.18;5.15;;;23.10;45.50;;;;;;5134597;27;20058;-64
2021/03/25 09:31:26;;;;;;;8.57;5.90;;;23.30;44.40;;;;;;5134521;27;20071;-65
2021/03/25 09:33:53;;;;;;;9.90;5.05;;;23.80;43.60;;;;;;5134274;27;20404;-66
2021/03/25 09:36:18;;;;;;;9.68;5.90;;;24.50;42.70;;;;;;5134169;27;20019;-65
2021/03/25 09:38:59;;;;;;;;;;;25.10;41.60;;;;;;5134762;27;20076;-66
2021/03/25 09:41:25;;;;;;;13.50;7.03;;;25.40;41.00;;;;;;5134023;27;19903;-66
2021/03/25 09:44:17;;;;;;;8.63;6.20;;;26.40;39.90;;;;;;5133964;27;20075;-65
2021/03/25 09:46:45;;;;;;;11.50;6.40;;;26.60;38.60;;;;;;5134910;27;20015;-65
2021/03/25 09:49:28;;;;;;;11.48;6.68;;;26.60;38.80;;;;;;5133642;27;20512;-65
2021/03/25 09:52:21;;;;;;;10.23;6.85;;;26.00;38.10;;;;;;5133989;27;20019;-65
2021/03/25 09:54:53;;;;;;;11.07;6.45;;;25.40;39.10;;;;;;5126061;27;20069;-66
2021/03/25 09:57:31;;;;;;;9.18;6.13;;;25.10;39.40;;;;;;5134079;28;20065;-65
2021/03/25 10:00:04;;;;;;;10.80;6.55;;;25.10;39.90;;;;;;5132405;28;20076;-65
2021/03/25 10:02:45;;;;;;;11.02;7.30;;;25.10;40.00;;;;;;5133881;28;20023;-65
2021/03/25 10:05:33;;;;;;;11.23;7.78;;;24.20;40.40;;;;;;5134076;28;20019;-65
2021/03/25 10:08:27;;;;;;;13.18;8.60;;;23.90;41.30;;;;;;5134075;28;20408;-65
2021/03/25 10:11:00;;;;;;;14.85;8.65;;;23.60;41.40;;;;;;5130325;28;20582;-65
2021/03/25 10:13:35;;;;;;;15.60;9.07;;;23.70;41.50;;;;;;5134473;28;20423;-66
2021/03/25 10:16:21;;;;;;;15.35;9.23;;;24.30;40.40;;;;;;5133788;28;20027;-66
2021/03/25 10:18:50;;;;;;;15.13;8.90;;;24.30;40.00;;;;;;5132262;28;20464;-64
2021/03/25 10:21:44;;;;;;;16.35;9.52;;;24.60;40.10;;;;;;5133391;28;20030;-65
2021/03/25 10:24:20;;;;;;;14.07;9.18;;;25.40;39.40;;;;;;5133500;28;20023;-65
2021/03/25 10:26:47;;;;;;;14.68;10.10;;;26.00;38.70;;;;;;5133926;28;20088;-65
2021/03/25 10:29:30;;;;;;;13.73;9.98;;;26.30;38.50;;;;;;5132239;28;20027;-66
2021/03/25 10:32:00;;;;;;;18.48;10.43;;;26.90;37.70;;;;;;5133563;28;20031;-65
2021/03/25 10:34:38;;;;;;;21.55;11.32;;;26.60;38.00;;;;;;5134005;27;20031;-65
2021/03/25 10:37:10;;;;;;;19.17;11.60;;;26.00;38.20;;;;;;5137879;27;20020;-65
2021/03/25 10:39:40;;;;;;;17.90;11.65;;;25.50;38.70;;;;;;5137745;27;20030;-65
2021/03/25 10:42:29;;;;;;;18.17;11.65;;;25.10;40.10;;;;;;5137638;27;20055;-64
2021/03/25 10:44:55;;;;;;;18.02;12.38;;;24.80;40.00;;;;;;5137812;27;20030;-66
2021/03/25 10:47:31;;;;;;;19.60;12.30;;;24.60;40.20;;;;;;5138349;27;20076;-65
2021/03/25 10:50:00;;;;;;;20.43;13.13;;;24.50;40.50;;;;;;5138516;27;20019;-65
2021/03/25 10:52:38;;;;;;;22.23;14.00;;;24.40;40.80;;;;;;5137330;27;20253;-66
2021/03/25 10:55:27;;;;;;;21.10;13.10;;;24.30;40.80;;;;;;5137626;27;20031;-64
2021/03/25 10:57:56;;;;;;;21.40;13.63;;;23.60;41.80;;;;;;5138031;27;20026;-64
2021/03/25 11:00:37;;;;;;;20.48;13.07;;;22.90;43.00;;;;;;5137995;27;20023;-64
2021/03/25 11:03:21;;;;;;;19.80;12.18;;;22.60;43.70;;;;;;5137624;27;20425;-65
2021/03/25 11:05:58;;;;;;;19.70;12.13;;;22.40;44.10;;;;;;5137768;27;20046;-64
2021/03/25 11:08:40;;;;;;;24.33;13.55;;;21.90;44.90;;;;;;5137565;27;20476;-65
2021/03/25 11:11:25;;;;;;;20.52;12.45;;;21.40;46.00;;;;;;5137625;27;20391;-66
2021/03/25 11:14:02;;;;;;;20.15;12.48;;;21.00;46.40;;;;;;5137212;27;20031;-65
2021/03/25 11:16:30;;;;;;;17.30;11.20;;;20.50;47.10;;;;;;5137854;27;20023;-63
2021/03/25 11:19:05;;;;;;;17.63;11.55;;;20.20;47.90;;;;;;5137660;27;20015;-65
2021/03/25 11:21:38;;;;;;;21.23;12.10;;;19.80;49.00;;;;;;5138169;27;20445;-65
2021/03/25 11:24:05;;;;;;;21.17;12.30;;;19.30;49.80;;;;;;5137622;27;20063;-63
2021/03/25 11:26:31;;;;;;;21.67;12.02;;;18.90;50.90;;;;;;5137519;27;20135;-65
2021/03/25 11:28:58;;;;;;;20.10;11.88;;;18.70;51.50;;;;;;5136093;27;20040;-64
2021/03/25 11:31:28;;;;;;;20.88;11.05;;;18.60;52.20;;;;;;5137264;27;20471;-65
2021/03/25 11:33:55;;;;;;;17.30;11.10;;;18.60;52.30;;;;;;5135991;28;20043;-65
2021/03/25 11:36:45;;;;;;;20.27;10.80;;;18.50;52.40;;;;;;5135518;28;20046;-64
2021/03/25 11:39:17;;;;;;;20.25;11.23;;;18.40;52.20;;;;;;5136009;28;20015;-64
2021/03/25 11:41:44;;;;;;;18.67;10.93;;;18.20;52.40;;;;;;5135278;28;20057;-64
2021/03/25 11:44:11;;;;;;;17.58;9.88;;;17.90;52.90;;;;;;5135708;28;20026;-64
2021/03/25 11:46:41;;;;;;;18.95;11.90;;;17.80;53.30;;;;;;5134155;27;20439;-64
2021/03/25 11:49:11;;;;;;;18.25;10.80;;;17.80;54.00;;;;;;5135062;28;20047;-66
2021/03/25 11:51:57;;;;;;;24.85;11.75;;;17.70;54.70;;;;;;5135694;28;20419;-64
2021/03/25 11:54:37;;;;;;;21.10;11.85;;;17.60;55.10;;;;;;5135373;28;20023;-64
2021/03/25 11:57:20;;;;;;;19.73;11.05;;;17.60;55.70;;;;;;5135069;28;20015;-66
2021/03/25 11:59:46;;;;;;;17.85;11.10;;;17.50;55.90;;;;;;5136121;28;20015;-65
2021/03/25 12:02:20;;;;;;;20.17;11.27;;;17.70;56.10;;;;;;5135578;28;20023;-65
2021/03/25 12:04:50;;;;;;;21.05;11.02;;;17.70;56.30;;;;;;5137340;28;20078;-67
2021/03/25 12:07:22;;;;;;;18.60;10.93;;;17.70;56.90;;;;;;5136020;27;20035;-66
2021/03/25 12:10:03;;;;;;;19.25;11.43;;;17.70;57.80;;;;;;5134908;28;20030;-66
2021/03/25 12:12:30;;;;;;;24.75;12.32;;;17.60;57.50;;;;;;5134951;28;20197;-67
2021/03/25 12:14:56;;;;;;;22.88;12.05;;;17.60;57.80;;;;;;5134249;28;20467;-66
2021/03/25 12:17:22;;;;;;;22.45;13.27;;;17.70;59.00;;;;;;5138547;28;20047;-66
2021/03/25 12:19:47;;;;;;;21.90;11.93;;;17.60;57.30;;;;;;5136246;28;20027;-66
2021/03/25 12:22:25;;;;;;;20.05;11.15;;;17.50;57.50;;;;;;5136029;28;20022;-66
2021/03/25 12:24:52;;;;;;;20.90;12.07;;;17.40;58.30;;;;;;5135168;28;20080;-64
2021/03/25 12:27:22;;;;;;;21.88;12.38;;;17.50;59.10;;;;;;5134912;28;20099;-65
2021/03/25 12:29:55;;;;;;;23.70;12.50;;;17.60;59.40;;;;;;5135233;28;20472;-65
2021/03/25 12:32:23;;;;;;;22.08;12.60;;;17.70;59.60;;;;;;5113640;27;613916;-64
2021/03/25 12:34:49;;;;;;;24.40;13.25;;;17.70;59.60;;;;;;5135525;27;20019;-64
2021/03/25 12:37:15;;;;;;;23.60;12.90;;;17.80;60.00;;;;;;5135254;27;20060;-66
2021/03/25 12:39:41;;;;;;;24.08;13.20;;;17.80;60.20;;;;;;5135568;27;20080;-66
2021/03/25 12:42:07;;;;;;;20.42;13.30;;;17.90;60.00;;;;;;5135150;27;20015;-66
2021/03/25 12:44:33;;;;;;;23.38;13.75;;;17.80;59.40;;;;;;5137394;27;20019;-66
2021/03/25 12:47:00;;;;;;;22.00;13.27;;;17.70;59.20;;;;;;5139864;27;20020;-66
2021/03/25 12:49:27;;;;;;;23.50;13.25;;;17.60;60.00;;;;;;5135493;27;20422;-66
2021/03/25 12:51:53;;;;;;;27.67;13.88;;;17.50;60.60;;;;;;5135745;27;20095;-66
2021/03/25 12:54:18;;;;;;;23.00;13.15;;;17.40;61.30;;;;;;5134161;27;20027;-65
2021/03/25 12:56:45;;;;;;;26.33;12.52;;;17.40;62.30;;;;;;5135278;27;20019;-66
2021/03/25 12:59:15;;;;;;;;;;;17.40;57.90;;;;;;5133640;27;20023;-66
2021/03/25 13:01:42;;;;;;;15.90;9.77;;;17.50;57.60;;;;;;5135586;27;19903;-65
2021/03/25 13:04:07;;;;;;;18.00;9.85;;;17.50;56.70;;;;;;5134809;27;20459;-65
2021/03/25 13:06:35;;;;;;;17.25;10.15;;;17.70;57.00;;;;;;5134833;27;20079;-66
2021/03/25 13:09:01;;;;;;;17.23;9.35;;;17.80;56.20;;;;;;5133502;27;20027;-66
2021/03/25 13:11:28;;;;;;;16.05;9.18;;;17.90;55.40;;;;;;5134467;27;20452;-66
2021/03/25 13:13:54;;;;;;;15.20;8.65;;;18.00;55.40;;;;;;5135184;27;20033;-66
2021/03/25 13:16:20;;;;;;;13.57;8.82;;;18.00;54.30;;;;;;5135358;27;20404;-66
2021/03/25 13:18:46;;;;;;;16.25;8.82;;;18.00;53.70;;;;;;5135341;27;20031;-66
2021/03/25 13:21:12;;;;;;;17.42;8.30;;;17.90;53.60;;;;;;5133490;27;20114;-65
2021/03/25 13:23:38;;;;;;;17.02;8.70;;;17.90;54.00;;;;;;5135315;27;20057;-65
2021/03/25 13:26:07;;;;;;;16.05;8.77;;;17.80;54.40;;;;;;5135045;27;20027;-66